Time;durP1;ratioP1;P1;durP2;ratioP2;P2;SDS_P1;SDS_P2;PMS_P1;PMS_P2;Temp;Humidity;BMP_temperature;BMP_pressure;BME280_temperature;BME280_humidity;BME280_pressure;Samples;Min_cycle;Max_cycle;Signal;HPM_P1;HPM_P2
2022/04/20 00:01:51;;;;;;;20.35;11.50;;;;;;;13.51;51.02;97735.63;4423989;32;20102;-80
2022/04/20 00:04:18;;;;;;;18.45;10.70;;;;;;;13.23;51.13;97744.16;4424465;32;20062;-80
2022/04/20 00:06:45;;;;;;;20.88;11.52;;;;;;;12.58;53.55;97743.53;4425010;32;20062;-80
2022/04/20 00:09:12;;;;;;;19.17;10.88;;;;;;;12.36;53.90;97752.47;4424765;32;20090;-80
2022/04/20 00:11:39;;;;;;;20.73;10.85;;;;;;;12.88;52.23;97738.41;4424357;32;20134;-81
2022/04/20 00:14:06;;;;;;;22.23;10.45;;;;;;;13.19;50.95;97747.88;4424402;32;20106;-81
2022/04/20 00:16:33;;;;;;;19.08;10.90;;;;;;;12.51;52.95;97740.44;4424395;32;20963;-81
2022/04/20 00:19:00;;;;;;;19.90;11.12;;;;;;;13.17;50.76;97740.13;4424760;32;20106;-81
2022/04/20 00:21:27;;;;;;;19.90;10.65;;;;;;;12.52;51.94;97741.28;4424671;32;20110;-81
2022/04/20 00:23:54;;;;;;;20.67;11.27;;;;;;;12.38;52.54;97747.22;4424082;32;20062;-81
2022/04/20 00:26:21;;;;;;;22.17;11.73;;;;;;;11.99;53.79;97745.84;4424510;32;20121;-81
2022/04/20 00:28:49;;;;;;;21.33;11.88;;;;;;;11.64;54.19;97742.50;4424045;32;20066;-81
2022/04/20 00:31:16;;;;;;;24.20;13.05;;;;;;;10.93;57.23;97741.78;4423667;32;20114;-81
2022/04/20 00:33:43;;;;;;;21.75;12.43;;;;;;;11.00;57.36;97740.59;4424757;32;20054;-80
2022/04/20 00:36:19;;;;;;;22.42;12.37;;;;;;;9.66;61.64;97737.34;4410835;32;20125;-80
2022/04/20 00:38:46;;;;;;;25.92;12.65;;;;;;;9.28;64.80;97736.44;4424098;32;20093;-81
2022/04/20 00:41:13;;;;;;;24.25;12.75;;;;;;;8.98;65.95;97743.69;4411374;32;20118;-81
2022/04/20 00:43:41;;;;;;;23.12;12.20;;;;;;;8.47;67.94;97744.06;4424177;32;20072;-80
2022/04/20 00:46:11;;;;;;;25.35;12.98;;;;;;;8.29;69.39;97745.56;4423713;32;20200;-80
2022/04/20 00:48:39;;;;;;;25.12;13.13;;;;;;;8.40;68.63;97744.31;4411247;32;20090;-80
2022/04/20 00:51:06;;;;;;;26.83;13.55;;;;;;;7.77;70.70;97750.94;4411003;32;20108;-80
2022/04/20 00:53:33;;;;;;;;;;;;;;;8.01;70.46;97748.34;4424004;32;20063;-80
2022/04/20 00:56:00;;;;;;;25.10;12.90;;;;;;;7.75;70.98;97749.28;4424210;32;19997;-80
2022/04/20 00:58:27;;;;;;;26.25;13.00;;;;;;;7.53;71.91;97752.63;4424261;32;20102;-80
2022/04/20 01:00:54;;;;;;;28.05;14.95;;;;;;;7.40;72.60;97753.94;4423532;32;20054;-80
2022/04/20 01:03:21;;;;;;;26.35;13.25;;;;;;;6.78;75.82;97750.91;4424030;32;20106;-80
2022/04/20 01:05:56;;;;;;;26.20;13.00;;;;;;;7.19;73.56;97755.50;4407248;32;20074;-80
2022/04/20 01:08:23;;;;;;;26.20;13.50;;;;;;;7.36;72.43;97754.94;4423211;32;20098;-80
2022/04/20 01:10:49;;;;;;;;;;;;;;;6.59;76.31;97759.22;4424312;32;20108;-80
2022/04/20 01:13:16;;;;;;;28.05;13.93;;;;;;;7.66;72.75;97758.19;4423739;32;19990;-80
2022/04/20 01:15:43;;;;;;;29.80;15.13;;;;;;;7.56;73.07;97761.97;4424102;32;20129;-81
2022/04/20 01:18:12;;;;;;;25.37;12.82;;;;;;;7.49;72.08;97763.06;4411325;32;20124;-81
2022/04/20 01:20:39;;;;;;;26.27;14.05;;;;;;;7.66;71.53;97768.44;4410730;32;20122;-81
2022/04/20 01:23:07;;;;;;;29.02;14.52;;;;;;;8.12;70.23;97767.59;4424246;32;20074;-80
2022/04/20 01:25:35;;;;;;;26.87;14.07;;;;;;;8.42;68.32;97764.81;4411177;32;20059;-80
2022/04/20 01:28:02;;;;;;;28.30;14.15;;;;;;;8.04;69.25;97763.66;4423811;32;20114;-80
2022/04/20 01:30:30;;;;;;;29.25;14.85;;;;;;;8.40;67.95;97759.72;4423869;32;20173;-81
2022/04/20 01:32:58;;;;;;;28.02;14.38;;;;;;;8.64;66.42;97763.06;4411233;32;20112;-80
2022/04/20 01:35:26;;;;;;;27.10;14.23;;;;;;;8.95;65.54;97752.41;4423697;32;20165;-80
2022/04/20 01:37:52;;;;;;;29.20;15.77;;;;;;;9.40;63.60;97753.09;4422915;32;20113;-80
2022/04/20 01:40:19;;;;;;;27.08;14.40;;;;;;;9.68;62.72;97760.50;4410384;32;20127;-81
2022/04/20 01:42:46;;;;;;;;;;;;;;;8.94;66.19;97755.03;4423313;32;20076;-80
2022/04/20 01:45:13;;;;;;;27.58;14.10;;;;;;;7.94;69.21;97759.72;4423384;32;19997;-81
2022/04/20 01:47:40;;;;;;;28.02;13.65;;;;;;;8.69;66.54;97773.16;4422494;32;20173;-81
2022/04/20 01:50:07;;;;;;;28.95;14.70;;;;;;;8.99;65.22;97771.09;4423214;32;20066;-80
2022/04/20 01:52:34;;;;;;;29.75;15.07;;;;;;;8.83;66.92;97770.06;4423158;32;20091;-80
2022/04/20 01:55:01;;;;;;;29.58;15.10;;;;;;;8.83;66.01;97767.50;4422779;32;20130;-81
2022/04/20 01:57:28;;;;;;;28.50;15.15;;;;;;;9.06;65.13;97762.25;4423504;32;20102;-80
2022/04/20 01:59:55;;;;;;;;;;;;;;;8.74;66.39;97768.69;4424709;32;20113;-80
2022/04/20 02:02:40;;;;;;;27.65;14.87;;;;;;;8.20;69.12;97769.06;4425573;32;19994;-80
2022/04/20 02:05:10;;;;;;;28.33;15.13;;;;;;;8.96;65.95;97760.94;4425494;32;20058;-80
2022/04/20 02:07:38;;;;;;;27.58;14.52;;;;;;;9.32;63.51;97756.00;4425115;32;20154;-80
2022/04/20 02:10:06;;;;;;;28.50;14.95;;;;;;;9.88;61.00;97760.41;4424680;32;20059;-81
2022/04/20 02:12:34;;;;;;;26.70;14.50;;;;;;;10.25;59.25;97762.22;4424961;32;20063;-81
2022/04/20 02:15:04;;;;;;;28.67;14.52;;;;;;;10.12;58.42;97761.91;4424740;32;20094;-81
2022/04/20 02:17:35;;;;;;;26.10;14.20;;;;;;;10.68;56.70;97766.22;4424686;32;20122;-80
2022/04/20 02:20:02;;;;;;;26.58;13.13;;;;;;;11.30;53.09;97761.47;4411436;32;20079;-81
2022/04/20 02:22:29;;;;;;;26.17;13.62;;;;;;;10.99;53.32;97763.00;4410173;32;20102;-81
2022/04/20 02:24:56;;;;;;;;;;;;;;;10.85;53.05;97762.84;4422635;32;20138;-81
2022/04/20 02:27:23;;;;;;;26.33;13.57;;;;;;;10.85;52.73;97756.84;4422617;32;19949;-81
2022/04/20 02:29:50;;;;;;;;;;;;;;;11.13;51.03;97751.97;4423126;32;20062;-81
2022/04/20 02:32:17;;;;;;;24.87;14.13;;;;;;;10.94;51.33;97757.19;4423342;32;19949;-81
2022/04/20 02:34:44;;;;;;;24.73;13.20;;;;;;;10.30;52.99;97762.84;4423462;32;20094;-81
2022/04/20 02:37:11;;;;;;;25.52;14.73;;;;;;;10.41;52.84;97755.44;4421285;32;20113;-81
2022/04/20 02:39:38;;;;;;;27.33;14.30;;;;;;;10.05;53.69;97760.53;4409986;32;20074;-81
2022/04/20 02:42:06;;;;;;;24.70;13.75;;;;;;;10.13;53.55;97762.75;4422875;32;20090;-81
2022/04/20 02:44:34;;;;;;;26.65;14.80;;;;;;;10.08;53.75;97765.53;4397009;32;20050;-81
2022/04/20 02:47:02;;;;;;;25.10;13.55;;;;;;;10.49;52.80;97767.97;4408093;32;20102;-81
2022/04/20 02:49:29;;;;;;;24.33;13.60;;;;;;;11.11;50.24;97766.72;4421292;32;20173;-81
2022/04/20 02:51:56;;;;;;;25.17;13.38;;;;;;;10.48;51.81;97770.63;4421253;32;20054;-81
2022/04/20 02:54:23;;;;;;;26.08;13.30;;;;;;;10.71;51.39;97776.37;4421375;32;20114;-81
2022/04/20 02:56:50;;;;;;;27.85;13.20;;;;;;;10.48;52.22;97771.47;4421279;32;20146;-81
2022/04/20 02:59:17;;;;;;;25.73;13.88;;;;;;;10.34;52.52;97774.69;4409887;32;20126;-81
2022/04/20 03:01:44;;;;;;;25.73;13.05;;;;;;;10.54;51.90;97772.94;4410401;32;20098;-81
2022/04/20 03:04:29;;;;;;;24.95;13.23;;;;;;;10.78;51.19;97781.25;4421321;32;20085;-81
2022/04/20 03:06:56;;;;;;;25.88;13.65;;;;;;;10.03;53.51;97777.81;4423518;32;20110;-81
2022/04/20 03:09:23;;;;;;;25.70;13.40;;;;;;;10.25;52.73;97776.88;4424013;32;20058;-81
2022/04/20 03:11:50;;;;;;;;;;;;;;;10.01;54.06;97777.03;4423647;32;20133;-81
2022/04/20 03:14:19;;;;;;;23.45;12.68;;;;;;;11.07;51.07;97778.13;4424197;32;19993;-80
2022/04/20 03:16:46;;;;;;;23.75;12.70;;;;;;;10.43;52.82;97778.59;4424393;32;20090;-81
2022/04/20 03:19:13;;;;;;;28.40;13.82;;;;;;;10.01;55.04;97778.78;4424489;32;20062;-81
2022/04/20 03:21:40;;;;;;;26.15;12.73;;;;;;;9.38;56.45;97778.94;4424590;32;20062;-81
2022/04/20 03:24:13;;;;;;;;;;;;;;;9.61;56.84;97782.25;4424460;32;20081;-81
2022/04/20 03:26:40;;;;;;;26.65;12.90;;;;;;;9.76;56.41;97779.00;4411578;32;19957;-81
2022/04/20 03:29:07;;;;;;;25.65;12.65;;;;;;;8.60;60.06;97776.09;4424644;32;20078;-81
2022/04/20 03:31:34;;;;;;;;;;;;;;;8.21;61.87;97779.28;4424757;32;20069;-80
2022/04/20 03:34:10;;;;;;;23.58;11.55;;;;;;;8.01;62.68;97784.31;4422743;32;19955;-80
2022/04/20 03:36:37;;;;;;;21.55;11.43;;;;;;;7.86;64.89;97779.72;4423934;32;20127;-80
2022/04/20 03:39:04;;;;;;;25.42;12.15;;;;;;;7.57;66.09;97778.22;4422853;32;20105;-80
2022/04/20 03:41:31;;;;;;;27.50;13.75;;;;;;;8.09;64.20;97782.31;4420832;32;20074;-80
2022/04/20 03:43:58;;;;;;;23.98;12.48;;;;;;;7.47;66.10;97782.81;4421743;32;20081;-80
2022/04/20 03:46:25;;;;;;;27.13;13.13;;;;;;;7.51;65.45;97787.78;4422482;32;20106;-80
2022/04/20 03:48:52;;;;;;;23.92;12.40;;;;;;;6.50;69.36;97792.81;4421896;32;20105;-81
2022/04/20 03:51:19;;;;;;;23.87;11.95;;;;;;;7.65;64.21;97789.03;4421949;32;20094;-80
2022/04/20 03:53:46;;;;;;;24.70;12.73;;;;;;;7.83;62.89;97801.22;4420339;32;20074;-81
2022/04/20 03:56:13;;;;;;;24.52;12.30;;;;;;;7.67;64.00;97798.37;4419714;32;20226;-81
2022/04/20 03:58:40;;;;;;;25.00;11.73;;;;;;;7.37;64.37;97802.81;4420171;32;20150;-81
2022/04/20 04:01:07;;;;;;;;;;;;;;;7.76;63.67;97798.06;4420598;32;20147;-80
2022/04/20 04:03:37;;;;;;;20.67;10.68;;;;;;;8.19;61.94;97804.22;4421630;32;19973;-81
2022/04/20 04:06:04;;;;;;;22.10;11.12;;;;;;;8.81;59.61;97803.53;4408849;32;20097;-81
2022/04/20 04:08:31;;;;;;;19.83;11.07;;;;;;;8.02;62.41;97806.53;4421521;32;20086;-80
2022/04/20 04:10:57;;;;;;;;;;;;;;;8.68;60.56;97810.06;4423522;32;20055;-80
2022/04/20 04:13:24;;;;;;;22.55;11.50;;;;;;;8.46;61.44;97811.78;4424141;32;19941;-80
2022/04/20 04:15:51;;;;;;;;;;;;;;;8.49;61.67;97814.25;4422308;32;20154;-80
2022/04/20 04:18:18;;;;;;;20.98;10.90;;;;;;;8.48;62.40;97815.16;4421311;32;19958;-80
2022/04/20 04:20:45;;;;;;;22.95;11.20;;;;;;;8.60;61.64;97827.53;4421203;32;20078;-80
2022/04/20 04:23:12;;;;;;;21.98;10.75;;;;;;;9.01;62.27;97817.38;4406691;32;20106;-81
2022/04/20 04:25:39;;;;;;;19.12;10.27;;;;;;;9.34;59.77;97817.72;4419376;32;20114;-80
2022/04/20 04:28:06;;;;;;;;;;;;;;;8.96;59.64;97826.13;4420401;32;20067;-80
2022/04/20 04:30:32;;;;;;;19.75;10.35;;;;;;;8.44;60.79;97829.03;4420682;32;19990;-80
2022/04/20 04:33:00;;;;;;;18.92;9.50;;;;;;;9.73;57.24;97825.53;4422792;32;20077;-80
2022/04/20 04:35:30;;;;;;;22.08;10.20;;;;;;;10.26;54.77;97832.69;4421464;32;20102;-80
2022/04/20 04:37:56;;;;;;;20.83;9.98;;;;;;;10.53;53.37;97836.59;4422782;32;20115;-80
2022/04/20 04:40:23;;;;;;;17.73;9.40;;;;;;;10.44;53.45;97842.19;4423396;32;20098;-80
2022/04/20 04:42:50;;;;;;;19.23;9.65;;;;;;;10.75;52.93;97844.19;4423740;32;20099;-80
2022/04/20 04:50:50;;;;;;;18.05;9.50;;;;;;;10.80;51.57;97857.69;4419009;32;20097;-81
2022/04/20 04:53:17;;;;;;;20.55;9.60;;;;;;;10.61;52.53;97857.69;4417403;32;20071;-81
2022/04/20 04:55:44;;;;;;;18.73;10.15;;;;;;;11.49;50.36;97859.56;4417169;32;20710;-80
2022/04/20 04:58:11;;;;;;;17.35;9.07;;;;;;;11.39;51.40;97858.34;4404281;32;20086;-81
2022/04/20 05:00:38;;;;;;;20.23;9.98;;;;;;;12.30;48.77;97865.78;4418726;32;20061;-80
2022/04/20 05:03:07;;;;;;;16.73;9.32;;;;;;;12.39;49.09;97863.56;4405346;32;20058;-80
2022/04/20 05:05:34;;;;;;;15.85;9.13;;;;;;;12.60;48.22;97865.91;4418206;32;20100;-80
2022/04/20 05:08:01;;;;;;;17.25;9.10;;;;;;;13.32;46.33;97868.84;4417302;32;20146;-80
2022/04/20 05:10:28;;;;;;;17.70;9.10;;;;;;;14.03;44.65;97865.56;4416894;32;20077;-80
2022/04/20 05:12:55;;;;;;;18.27;8.98;;;;;;;14.55;43.98;97870.22;4416237;32;20098;-81
2022/04/20 05:15:23;;;;;;;17.80;8.60;;;;;;;15.57;41.83;97868.91;4416153;32;20146;-80
2022/04/20 05:17:50;;;;;;;16.35;9.02;;;;;;;16.28;39.64;97875.47;4416285;32;20150;-80
2022/04/20 05:20:19;;;;;;;14.18;8.35;;;;;;;16.17;40.16;97877.97;4423319;32;20106;-80
2022/04/20 05:22:47;;;;;;;18.73;9.55;;;;;;;16.61;38.95;97872.28;4411044;32;20106;-80
2022/04/20 05:25:14;;;;;;;14.32;8.13;;;;;;;16.53;39.29;97881.56;4411085;32;20114;-81
2022/04/20 05:27:41;;;;;;;14.45;7.97;;;;;;;16.74;38.64;97888.75;4411391;32;20118;-80
2022/04/20 05:30:11;;;;;;;16.30;9.18;;;;;;;17.46;38.01;97883.59;4411322;32;20098;-80
2022/04/20 05:32:38;;;;;;;14.48;8.52;;;;;;;17.26;38.00;97882.44;4423207;32;20102;-81
2022/04/20 05:35:05;;;;;;;18.80;8.88;;;;;;;17.02;38.73;97885.03;4409066;32;20106;-80
2022/04/20 05:43:07;;;;;;;15.07;8.60;;;;;;;16.82;39.34;97883.00;4424065;32;20790;-80
2022/04/20 05:45:36;;;;;;;14.87;8.50;;;;;;;16.54;39.78;97881.47;4423062;32;20063;-80
2022/04/20 05:48:04;;;;;;;17.05;9.38;;;;;;;17.24;38.51;97881.72;4416282;32;20094;-80
2022/04/20 05:50:31;;;;;;;16.95;8.93;;;;;;;16.24;40.62;97874.00;4400726;32;20209;-80
2022/04/20 05:52:58;;;;;;;15.80;9.00;;;;;;;16.84;39.72;97875.91;4413181;32;20067;-81
2022/04/20 05:55:25;;;;;;;14.68;8.90;;;;;;;16.68;39.58;97880.53;4410564;32;20106;-80
2022/04/20 05:57:53;;;;;;;14.55;8.43;;;;;;;17.57;38.13;97875.81;4410436;32;20144;-81
2022/04/20 06:00:20;;;;;;;16.83;9.20;;;;;;;16.93;39.29;97880.47;4410474;32;20121;-83
2022/04/20 06:02:47;;;;;;;16.17;9.13;;;;;;;17.25;38.50;97887.75;4409552;32;20426;-81
2022/04/20 06:05:14;;;;;;;15.98;9.25;;;;;;;17.35;38.93;97881.78;4409829;32;20145;-80
2022/04/20 06:07:41;;;;;;;15.00;8.35;;;;;;;16.19;40.85;97879.53;4408884;32;20114;-80
2022/04/20 06:10:08;;;;;;;16.37;9.23;;;;;;;16.16;40.24;97879.75;4414895;32;20164;-79
2022/04/20 06:12:35;;;;;;;15.20;9.07;;;;;;;15.71;41.38;97882.78;4410177;32;20129;-81
2022/04/20 06:15:03;;;;;;;16.23;9.75;;;;;;;16.30;40.81;97878.78;4408942;32;20106;-81
2022/04/20 06:17:30;;;;;;;18.62;10.57;;;;;;;16.03;41.69;97880.66;4398453;32;20130;-81
2022/04/20 06:19:57;;;;;;;16.85;9.75;;;;;;;16.04;40.88;97875.34;4411411;32;20081;-81
2022/04/20 06:22:30;;;;;;;17.90;10.02;;;;;;;16.42;40.95;97874.50;4408653;32;20113;-82
2022/04/20 06:25:02;;;;;;;16.60;8.73;;;;;;;16.53;41.28;97877.19;4399892;32;20114;-82
2022/04/20 06:27:30;;;;;;;15.70;8.35;;;;;;;16.17;41.31;97867.56;4423198;32;20120;-81
2022/04/20 06:29:58;;;;;;;18.37;8.90;;;;;;;15.25;42.45;97862.38;4423655;32;20098;-81
2022/04/20 06:32:27;;;;;;;16.10;9.18;;;;;;;16.27;41.22;97866.00;4408381;32;20395;-82
2022/04/20 06:34:57;;;;;;;15.82;8.68;;;;;;;16.39;41.00;97869.50;4421583;32;20153;-81
2022/04/20 06:37:25;;;;;;;16.00;8.40;;;;;;;15.41;42.50;97873.44;4407715;32;20601;-81
2022/04/20 06:39:54;;;;;;;16.62;8.80;;;;;;;15.32;42.91;97867.09;4421674;32;20093;-81
2022/04/20 06:42:21;;;;;;;16.73;9.13;;;;;;;14.94;44.47;97863.50;4421551;32;20478;-81
2022/04/20 06:44:48;;;;;;;16.23;8.18;;;;;;;15.21;42.81;97856.56;4421673;32;20479;-81
2022/04/20 06:47:15;;;;;;;15.50;8.63;;;;;;;15.29;42.33;97856.03;4423887;32;20102;-81
2022/04/20 06:49:42;;;;;;;14.93;8.35;;;;;;;13.74;45.29;97858.69;4425761;32;20106;-81
2022/04/20 07:00:25;;;;;;;14.77;8.32;;;;;;;14.86;44.71;97857.94;4426486;32;20137;-82
2022/04/20 07:03:00;;;;;;;16.40;8.40;;;;;;;15.81;41.74;97856.06;4426292;32;20089;-82
2022/04/20 07:05:27;;;;;;;18.48;7.78;;;;;;;15.14;42.75;97857.88;4426230;32;20176;-82
2022/04/20 07:08:00;;;;;;;14.43;7.80;;;;;;;14.85;42.90;97845.88;4426508;32;20478;-82
2022/04/20 07:10:28;;;;;;;12.48;6.82;;;;;;;15.26;43.53;97849.28;4412409;32;20104;-82
2022/04/20 07:12:55;;;;;;;14.82;7.62;;;;;;;15.42;41.74;97845.66;4425900;32;20428;-82
2022/04/20 07:15:22;;;;;;;12.73;6.70;;;;;;;16.22;40.16;97852.44;4411980;32;20516;-83
2022/04/20 07:17:49;;;;;;;15.10;7.70;;;;;;;16.83;38.59;97853.41;4410616;32;20106;-83
2022/04/20 07:20:19;;;;;;;15.75;7.87;;;;;;;16.25;39.44;97851.37;4425514;32;20449;-82
2022/04/20 07:22:50;;;;;;;13.65;7.70;;;;;;;15.99;40.22;97848.81;4425882;32;20081;-82
2022/04/20 07:25:17;;;;;;;13.85;7.47;;;;;;;16.15;39.77;97862.44;4425860;32;20462;-82
2022/04/20 07:27:48;;;;;;;13.00;6.70;;;;;;;16.40;38.95;97853.78;4425942;32;20124;-81
2022/04/20 07:30:16;;;;;;;13.70;7.30;;;;;;;15.22;41.33;97854.78;4412044;32;20094;-82
2022/04/20 07:32:43;;;;;;;14.18;6.80;;;;;;;15.78;40.49;97855.44;4424167;32;20576;-82
2022/04/20 07:35:10;;;;;;;14.55;7.50;;;;;;;16.83;37.67;97860.38;4424714;32;20137;-82
2022/04/20 07:37:37;;;;;;;14.25;7.78;;;;;;;16.47;37.95;97860.22;4424965;32;20102;-82
2022/04/20 07:40:05;;;;;;;15.50;7.93;;;;;;;16.26;38.57;97858.25;4426306;32;20058;-81
2022/04/20 07:42:33;;;;;;;14.15;7.20;;;;;;;16.44;38.15;97844.81;4426918;32;20078;-81
2022/04/20 07:45:03;;;;;;;13.27;6.82;;;;;;;16.14;39.37;97863.38;4428160;32;20120;-81
2022/04/20 07:47:30;;;;;;;12.95;6.72;;;;;;;16.79;36.97;97854.53;4415791;32;20094;-80
2022/04/20 07:52:46;;;;;;;12.57;6.72;;;;;;;16.63;36.42;97848.75;4422707;32;20109;-81
2022/04/20 07:55:18;;;;;;;13.85;7.25;;;;;;;17.15;35.61;97856.31;4416172;32;20096;-81
2022/04/20 07:57:45;;;;;;;12.63;6.72;;;;;;;16.47;37.28;97843.75;4429719;32;20148;-81
2022/04/20 08:00:14;;;;;;;13.20;7.00;;;;;;;15.94;37.63;97850.88;4424623;32;165159;-80
2022/04/20 08:02:44;;;;;;;11.65;6.43;;;;;;;16.40;37.67;97858.16;4428787;32;20125;-81
2022/04/20 08:05:14;;;;;;;12.52;6.65;;;;;;;16.60;36.70;97844.59;4427950;32;20124;-81
2022/04/20 08:07:44;;;;;;;12.52;7.18;;;;;;;17.33;35.98;97854.97;4423494;32;20097;-82
2022/04/20 08:10:13;;;;;;;14.68;6.97;;;;;;;17.60;34.68;97849.50;4412197;32;20145;-81
2022/04/20 08:12:44;;;;;;;11.98;6.72;;;;;;;16.31;39.04;97848.38;4411835;32;20086;-81
2022/04/20 08:15:11;;;;;;;11.50;6.00;;;;;;;16.97;36.10;97855.84;4396914;32;20103;-81
2022/04/20 08:17:38;;;;;;;11.73;6.18;;;;;;;16.81;36.17;97857.06;4410757;32;20119;-80
2022/04/20 08:20:08;;;;;;;9.85;5.32;;;;;;;16.48;35.70;97850.63;4410428;32;20516;-81
2022/04/20 08:22:44;;;;;;;12.88;6.62;;;;;;;16.52;37.53;97846.88;4410577;32;20125;-81
2022/04/20 08:25:13;;;;;;;13.20;7.05;;;;;;;17.33;34.96;97854.97;4396998;32;20167;-81
2022/04/20 08:27:40;;;;;;;12.60;7.30;;;;;;;18.40;34.26;97846.09;4413055;32;20093;-82
2022/04/20 08:30:08;;;;;;;11.82;6.05;;;;;;;18.83;33.18;97843.59;4412507;32;20089;-80
2022/04/20 08:32:35;;;;;;;10.63;5.28;;;;;;;17.90;32.90;97845.56;4414312;32;20070;-80
2022/04/20 08:35:02;;;;;;;9.48;4.82;;;;;;;17.61;32.70;97840.72;4410999;32;20097;-81
2022/04/20 08:37:30;;;;;;;11.20;5.53;;;;;;;17.17;32.66;97853.59;4413219;32;20149;-81
2022/04/20 08:39:57;;;;;;;10.20;5.22;;;;;;;18.94;30.00;97845.34;4410626;32;20086;-81
2022/04/20 08:42:26;;;;;;;11.15;5.40;;;;;;;18.07;30.58;97839.88;4396809;32;20098;-81
2022/04/20 08:44:56;;;;;;;11.48;5.40;;;;;;;18.61;30.07;97839.19;4409998;32;20102;-80
2022/04/20 08:47:26;;;;;;;9.57;4.65;;;;;;;16.47;34.20;97839.38;4409948;32;20098;-81
2022/04/20 08:49:55;;;;;;;10.10;5.10;;;;;;;16.51;34.85;97839.19;4410562;32;20166;-81
2022/04/20 08:52:37;;;;;;;9.63;4.45;;;;;;;16.25;35.13;97834.00;4409913;32;20133;-80
2022/04/20 08:55:14;;;;;;;10.60;5.35;;;;;;;16.57;33.60;97831.75;4409574;32;20097;-81
2022/04/20 08:57:46;;;;;;;10.15;5.25;;;;;;;18.24;31.60;97830.75;4409547;32;20145;-81
2022/04/20 09:00:22;;;;;;;12.10;6.37;;;;;;;17.60;34.01;97825.19;4409831;32;20086;-80
2022/04/20 09:02:55;;;;;;;12.32;5.85;;;;;;;17.56;34.87;97824.59;4396975;32;20430;-81
2022/04/20 09:05:24;;;;;;;11.82;6.18;;;;;;;17.64;33.51;97827.44;4396791;32;20097;-81
2022/04/20 09:07:52;;;;;;;11.40;6.30;;;;;;;17.05;34.93;97829.25;4410143;32;20128;-80
2022/04/20 09:10:19;;;;;;;12.00;6.72;;;;;;;17.34;35.01;97824.53;4408566;32;20485;-81
2022/04/20 09:12:51;;;;;;;11.57;6.40;;;;;;;18.28;32.39;97829.56;4411005;32;20143;-80
2022/04/20 09:15:32;;;;;;;13.27;6.18;;;;;;;18.80;32.47;97830.72;4397369;32;20435;-80
2022/04/20 09:18:04;;;;;;;10.77;5.60;;;;;;;19.21;30.77;97832.66;4413170;32;20111;-81
2022/04/20 09:20:32;;;;;;;10.90;5.97;;;;;;;19.15;31.00;97833.16;4411863;32;20078;-80
2022/04/20 09:23:08;;;;;;;12.02;6.15;;;;;;;19.55;30.02;97835.09;4397059;32;20089;-81
2022/04/20 09:25:51;;;;;;;11.10;6.15;;;;;;;19.25;28.96;97828.84;4397126;32;20109;-80
2022/04/20 09:28:18;;;;;;;10.88;6.12;;;;;;;17.45;32.27;97826.34;4410477;32;20093;-80
2022/04/20 09:30:50;;;;;;;12.20;6.22;;;;;;;18.27;31.11;97824.47;4396806;32;20086;-82
2022/04/20 09:33:16;;;;;;;10.60;5.35;;;;;;;18.58;31.67;97825.53;4409715;32;20165;-79
2022/04/20 09:35:49;;;;;;;10.88;5.60;;;;;;;17.66;31.97;97829.13;4395798;32;20461;-79
2022/04/20 09:38:21;;;;;;;10.82;5.75;;;;;;;17.85;31.74;97832.00;4395591;32;20476;-79
2022/04/20 09:40:49;;;;;;;10.07;5.60;;;;;;;17.48;31.37;97834.75;4409929;32;20104;-80
2022/04/20 09:43:21;;;;;;;9.90;5.03;;;;;;;18.65;30.42;97829.34;4396293;32;20090;-80
2022/04/20 09:49:12;;;;;;;13.32;5.72;;;;;;;20.53;26.09;97829.53;4409479;32;20727;-79
2022/04/20 09:51:41;;;;;;;12.18;6.18;;;;;;;20.50;28.54;97836.66;4410347;32;20086;-79
2022/04/20 09:54:28;;;;;;;10.70;5.90;;;;;;;20.09;27.03;97824.44;4408953;32;20473;-80
2022/04/20 09:57:10;;;;;;;12.37;7.53;;;;;;;19.49;29.20;97827.78;4408693;32;20090;-79
2022/04/20 09:59:38;;;;;;;10.65;5.95;;;;;;;18.17;31.21;97826.94;4409236;32;20094;-80
2022/04/20 10:02:10;;;;;;;11.88;5.75;;;;;;;16.75;34.14;97829.66;4395623;32;20430;-80
2022/04/20 10:04:40;;;;;;;10.90;5.70;;;;;;;18.74;29.53;97821.63;4394386;32;20125;-81
2022/04/20 10:07:07;;;;;;;12.40;7.15;;;;;;;19.52;29.96;97817.06;4406466;32;20509;-80
2022/04/20 10:09:34;;;;;;;12.18;6.50;;;;;;;18.23;31.56;97813.44;4407478;32;20098;-80
2022/04/20 10:12:01;;;;;;;11.45;6.60;;;;;;;17.25;31.94;97814.75;4393871;32;20447;-80
2022/04/20 10:17:21;;;;;;;13.13;6.20;;;;;;;15.62;37.15;97816.62;4407344;32;20522;-81
2022/04/20 10:19:48;;;;;;;13.80;7.05;;;;;;;15.01;37.01;97813.66;4394040;32;20173;-80
2022/04/20 10:22:18;;;;;;;13.55;7.12;;;;;;;16.23;35.98;97812.44;4408565;32;20142;-80
2022/04/20 10:24:46;;;;;;;12.00;6.20;;;;;;;17.75;33.76;97802.34;4409847;32;20082;-80
2022/04/20 10:27:21;;;;;;;12.50;7.35;;;;;;;16.42;36.16;97804.19;4396228;32;20583;-79
2022/04/20 10:30:00;;;;;;;14.90;7.57;;;;;;;15.97;36.52;97803.03;4396877;32;20098;-79
2022/04/20 10:32:46;;;;;;;13.70;7.75;;;;;;;17.40;34.68;97797.97;4397009;32;20090;-79
2022/04/20 10:35:15;;;;;;;14.80;8.63;;;;;;;17.30;34.17;97805.63;4395890;32;20151;-79
2022/04/20 10:38:08;;;;;;;15.38;8.30;;;;;;;17.14;34.10;97796.47;4408601;32;20418;-79
2022/04/20 10:40:54;;;;;;;14.98;8.27;;;;;;;17.42;32.24;97793.47;4409980;32;20162;-79
2022/04/20 10:43:23;;;;;;;13.70;7.85;;;;;;;16.93;33.79;97788.44;4410318;32;20169;-79
2022/04/20 10:46:14;;;;;;;15.13;7.35;;;;;;;16.78;33.42;97799.00;4410338;32;20086;-78
2022/04/20 10:49:02;;;;;;;14.93;7.87;;;;;;;16.76;34.63;97800.06;4410294;32;20113;-79
2022/04/20 10:51:30;;;;;;;;;;;;;;;16.68;32.92;97795.38;4397421;32;20101;-78
2022/04/20 10:54:26;;;;;;;14.73;8.75;;;;;;;15.79;36.20;97786.88;4410775;32;19986;-78
2022/04/20 10:57:00;;;;;;;13.82;7.95;;;;;;;16.72;35.73;97785.59;4409815;32;20432;-78
2022/04/20 10:59:28;;;;;;;15.77;9.43;;;;;;;16.06;34.80;97786.78;4409450;32;20120;-79
2022/04/20 11:02:05;;;;;;;15.13;9.10;;;;;;;15.39;36.22;97779.12;4410628;32;20098;-79
2022/04/20 11:04:33;;;;;;;14.00;8.50;;;;;;;17.04;35.61;97776.28;4410374;32;20128;-79
2022/04/20 11:07:01;;;;;;;14.80;8.88;;;;;;;16.68;34.54;97774.56;4397009;32;20511;-79
2022/04/20 11:09:44;;;;;;;11.95;6.32;;;;;;;17.48;34.66;97784.38;4410174;32;20155;-80
2022/04/20 11:21:03;;;;;;;13.93;8.05;;;;;;;18.84;32.05;97776.44;4409734;32;20102;-78
2022/04/20 11:23:58;;;;;;;13.88;7.90;;;;;;;19.13;29.86;97776.69;4396577;32;20472;-79
2022/04/20 11:26:34;;;;;;;13.07;8.32;;;;;;;18.95;28.51;97769.41;4410553;32;20373;-79
2022/04/20 11:29:08;;;;;;;14.35;8.43;;;;;;;19.89;26.98;97771.19;4410540;32;20160;-79
2022/04/20 11:31:38;;;;;;;15.68;8.55;;;;;;;20.26;27.64;97768.00;4409720;32;20110;-79
2022/04/20 11:34:06;;;;;;;13.77;8.68;;;;;;;19.32;29.38;97764.59;4409999;32;20134;-79
2022/04/20 11:36:34;;;;;;;15.02;8.35;;;;;;;18.61;29.98;97763.41;4396855;32;20145;-78
2022/04/20 11:39:01;;;;;;;13.10;7.85;;;;;;;18.82;28.54;97766.13;4396378;32;20145;-79
2022/04/20 11:41:28;;;;;;;13.23;8.15;;;;;;;19.81;27.86;97770.16;4410407;32;20165;-78
2022/04/20 11:43:55;;;;;;;13.23;8.20;;;;;;;19.39;28.22;97762.31;4396703;32;20118;-79
2022/04/20 11:46:22;;;;;;;13.48;7.87;;;;;;;19.60;27.18;97763.16;4410179;32;20169;-80
2022/04/20 11:48:52;;;;;;;13.82;8.00;;;;;;;20.86;25.03;97763.62;4410330;32;20090;-80
2022/04/20 11:51:25;;;;;;;19.20;8.85;;;;;;;21.27;26.42;97764.38;4409955;32;20113;-78
2022/04/20 11:53:52;;;;;;;13.98;7.47;;;;;;;20.97;26.28;97762.69;4410345;32;20117;-79
2022/04/20 11:56:37;;;;;;;12.27;7.40;;;;;;;19.75;26.50;97762.81;4396339;32;20162;-80
2022/04/20 11:59:08;;;;;;;13.15;8.35;;;;;;;20.78;24.01;97761.69;4396426;32;20160;-80
2022/04/20 12:01:39;;;;;;;13.88;7.45;;;;;;;20.73;24.75;97755.19;4396981;32;20106;-79
2022/04/20 12:04:14;;;;;;;12.50;7.40;;;;;;;19.96;27.08;97757.56;4410183;32;20608;-79
2022/04/20 12:06:52;;;;;;;13.20;7.78;;;;;;;19.72;28.36;97758.69;4396323;32;20404;-80
2022/04/20 12:09:24;;;;;;;14.02;7.95;;;;;;;19.85;27.50;97767.16;4396998;32;20078;-80
2022/04/20 12:11:56;;;;;;;12.05;7.85;;;;;;;20.40;26.14;97756.31;4410317;32;20150;-80
2022/04/20 12:14:26;;;;;;;13.60;8.18;;;;;;;20.66;27.11;97760.16;4409703;32;20153;-80
2022/04/20 12:16:57;;;;;;;12.82;7.90;;;;;;;19.88;26.58;97750.34;4410271;32;20086;-80